Time;durP1;ratioP1;P1;durP2;ratioP2;P2;SDS_P1;SDS_P2;PMS_P1;PMS_P2;Temp;Humidity;BMP_temperature;BMP_pressure;BME280_temperature;BME280_humidity;BME280_pressure;Samples;Min_cycle;Max_cycle;Signal;HPM_P1;HPM_P2
2023/03/19 00:00:24;;;;;;;0.30;0.30;;;;;;;13.10;66.79;100575.81;5118316;28;20041;-80
2023/03/19 00:02:55;;;;;;;0.20;0.20;;;;;;;13.07;67.09;100574.16;5141771;28;20026;-82
2023/03/19 00:05:25;;;;;;;0.20;0.20;;;;;;;13.10;66.67;100581.91;5111338;28;20051;-81
2023/03/19 00:07:56;;;;;;;0.28;0.28;;;;;;;13.12;66.20;100572.19;5105588;28;20667;-81
2023/03/19 00:10:26;;;;;;;0.50;0.50;;;;;;;13.12;66.17;100569.53;5103269;28;20046;-82
2023/03/19 00:12:57;;;;;;;0.22;0.22;;;;;;;13.18;66.41;100579.84;5120957;28;20035;-82
2023/03/19 00:15:27;;;;;;;0.30;0.30;;;;;;;13.10;67.17;100583.72;5134797;28;20465;-81
2023/03/19 00:17:57;;;;;;;0.30;0.30;;;;;;;13.10;67.20;100581.06;5136798;28;20126;-81
2023/03/19 00:20:28;;;;;;;0.63;0.63;;;;;;;12.57;71.14;100577.81;5110757;28;20098;-81
2023/03/19 00:22:59;;;;;;;0.15;0.15;;;;;;;12.89;67.31;100581.00;5126295;28;20068;-81
2023/03/19 00:25:29;;;;;;;1.95;1.48;;;;;;;12.94;67.01;100580.81;5129542;28;20042;-80
2023/03/19 00:28:00;;;;;;;0.30;0.30;;;;;;;13.00;66.70;100588.50;5125016;28;20022;-81
2023/03/19 00:30:30;;;;;;;0.20;0.20;;;;;;;12.98;66.92;100583.25;5139187;28;20382;-81
2023/03/19 00:33:01;;;;;;;1.00;0.52;;;;;;;12.94;67.26;100579.06;5137273;28;20027;-81
2023/03/19 00:35:32;;;;;;;0.20;0.20;;;;;;;12.98;67.18;100578.00;5165779;28;20064;-81
2023/03/19 00:38:03;;;;;;;0.22;0.22;;;;;;;12.97;66.88;100589.47;5123933;28;20027;-81
2023/03/19 00:40:34;;;;;;;0.35;0.35;;;;;;;12.93;66.69;100595.75;5111355;28;20034;-81
2023/03/19 00:43:05;;;;;;;0.40;0.40;;;;;;;12.97;66.25;100580.69;5134564;28;20023;-81
2023/03/19 00:45:35;;;;;;;0.38;0.38;;;;;;;12.89;66.61;100576.59;5114374;28;20028;-81
2023/03/19 00:48:06;;;;;;;0.30;0.30;;;;;;;12.91;66.65;100579.16;5119135;28;20033;-81
2023/03/19 00:50:37;;;;;;;0.55;0.55;;;;;;;12.89;66.26;100581.00;5103648;28;20061;-81
2023/03/19 00:53:07;;;;;;;0.40;0.40;;;;;;;12.91;65.93;100577.41;5134784;28;20490;-84
2023/03/19 00:55:38;;;;;;;0.43;0.43;;;;;;;12.85;66.12;100582.88;5152846;28;20074;-81
2023/03/19 00:58:09;;;;;;;0.30;0.30;;;;;;;12.84;66.27;100583.81;5152004;28;20022;-81
2023/03/19 01:00:39;;;;;;;0.30;0.30;;;;;;;12.79;67.01;100577.84;5118921;28;20041;-81
2023/03/19 01:03:10;;;;;;;0.20;0.20;;;;;;;12.83;65.98;100582.09;5101861;28;20026;-82
2023/03/19 01:05:40;;;;;;;0.30;0.30;;;;;;;12.83;65.97;100573.34;5100364;28;20122;-80
2023/03/19 01:08:11;;;;;;;0.20;0.20;;;;;;;12.84;66.07;100573.28;5119339;28;20026;-82
2023/03/19 01:10:42;;;;;;;0.30;0.30;;;;;;;12.79;65.69;100569.97;5120283;28;20055;-81
2023/03/19 01:13:13;;;;;;;0.47;0.47;;;;;;;12.75;66.14;100565.75;5131301;28;20032;-82
2023/03/19 01:15:43;;;;;;;0.85;0.85;;;;;;;12.74;65.88;100564.88;5118954;28;20045;-81
2023/03/19 01:18:14;;;;;;;0.60;0.60;;;;;;;12.67;66.67;100566.03;5137152;28;20456;-82
2023/03/19 01:20:44;;;;;;;1.38;1.15;;;;;;;12.69;66.48;100573.84;5131081;28;20051;-81
2023/03/19 01:23:15;;;;;;;0.30;0.30;;;;;;;12.66;66.74;100566.94;5135740;28;20604;-81
2023/03/19 01:25:46;;;;;;;0.93;0.93;;;;;;;12.67;66.50;100571.28;5114733;28;20125;-81
2023/03/19 01:28:17;;;;;;;1.65;0.57;;;;;;;12.66;66.47;100576.63;5152161;28;20041;-83
2023/03/19 01:30:47;;;;;;;0.40;0.40;;;;;;;12.63;66.76;100571.47;5103876;28;20047;-81
2023/03/19 01:33:19;;;;;;;0.60;0.60;;;;;;;12.62;66.72;100569.75;5102451;28;20058;-81
2023/03/19 01:35:50;;;;;;;0.30;0.30;;;;;;;12.62;66.56;100575.00;5139303;28;20031;-80
2023/03/19 01:38:20;;;;;;;0.30;0.30;;;;;;;12.55;67.07;100562.09;5124433;28;20117;-79
2023/03/19 01:40:51;;;;;;;0.30;0.30;;;;;;;12.58;65.90;100564.63;5119561;28;20113;-81
2023/03/19 01:43:27;;;;;;;0.20;0.20;;;;;;;12.56;66.37;100569.06;5129393;28;20027;-82
2023/03/19 01:46:03;;;;;;;0.73;0.73;;;;;;;12.50;66.33;100565.81;5099265;28;20106;-81
2023/03/19 01:48:40;;;;;;;0.63;0.63;;;;;;;12.41;66.86;100572.28;5114053;28;20042;-83
2023/03/19 01:51:14;;;;;;;0.40;0.40;;;;;;;12.45;66.27;100568.59;5114822;28;20118;-82
2023/03/19 01:53:48;;;;;;;0.52;0.52;;;;;;;12.41;67.28;100569.66;5131353;28;20039;-82
2023/03/19 01:56:22;;;;;;;0.73;0.73;;;;;;;12.37;66.90;100573.28;5146711;28;20095;-81
2023/03/19 01:58:57;;;;;;;0.30;0.30;;;;;;;12.35;66.67;100560.22;5155445;28;20033;-83
2023/03/19 02:01:32;;;;;;;0.75;0.75;;;;;;;12.34;66.58;100566.38;5121895;28;20065;-81
2023/03/19 02:04:04;;;;;;;2.20;1.25;;;;;;;12.36;66.48;100561.06;5175406;28;20513;-84
2023/03/19 02:06:36;;;;;;;0.30;0.30;;;;;;;12.30;67.01;100558.66;5139206;28;20053;-82
2023/03/19 02:09:08;;;;;;;0.45;0.45;;;;;;;12.32;66.63;100559.47;5137545;28;20022;-80
2023/03/19 02:11:38;;;;;;;0.88;0.88;;;;;;;12.32;66.78;100560.31;5141315;28;20045;-81
2023/03/19 02:14:09;;;;;;;0.30;0.30;;;;;;;12.31;66.58;100563.00;5125167;28;20038;-82
2023/03/19 02:16:39;;;;;;;1.25;0.95;;;;;;;12.27;66.97;100559.63;5119157;28;20089;-85
2023/03/19 02:19:16;;;;;;;0.75;0.75;;;;;;;12.26;66.87;100563.19;5116725;28;20528;-82
2023/03/19 02:21:47;;;;;;;0.30;0.30;;;;;;;12.21;67.24;100565.97;5157448;28;20038;-83
2023/03/19 02:24:32;;;;;;;0.30;0.30;;;;;;;12.24;67.28;100555.34;5155373;28;20338;-81
2023/03/19 02:27:06;;;;;;;0.40;0.40;;;;;;;12.19;67.60;100552.00;5122115;28;20057;-81
2023/03/19 02:29:37;;;;;;;0.68;0.68;;;;;;;12.23;66.85;100548.38;5138103;28;20049;-81
2023/03/19 02:32:08;;;;;;;1.15;1.05;;;;;;;12.22;67.37;100551.91;5143248;28;20026;-81
2023/03/19 02:34:40;;;;;;;0.30;0.30;;;;;;;12.22;66.63;100556.31;5120150;28;20896;-81
2023/03/19 02:37:21;;;;;;;0.80;0.63;;;;;;;12.20;67.31;100558.16;5127999;28;20044;-81
2023/03/19 02:40:03;;;;;;;0.50;0.50;;;;;;;12.16;67.41;100556.53;5141530;28;20035;-81
2023/03/19 02:42:34;;;;;;;1.75;1.20;;;;;;;12.14;68.07;100559.22;5121512;28;20038;-81
2023/03/19 02:45:06;;;;;;;0.77;0.77;;;;;;;12.12;67.72;100550.53;5134939;28;20047;-81
2023/03/19 02:47:36;;;;;;;0.40;0.40;;;;;;;12.08;68.23;100556.81;5133946;28;20011;-81
2023/03/19 02:50:08;;;;;;;0.60;0.60;;;;;;;12.03;68.20;100561.38;5155516;28;20034;-81
2023/03/19 02:52:38;;;;;;;0.38;0.38;;;;;;;12.03;68.41;100561.38;5131224;28;20402;-81
2023/03/19 02:55:09;;;;;;;0.50;0.50;;;;;;;12.03;68.35;100551.72;5140823;28;20173;-82
2023/03/19 02:57:39;;;;;;;0.57;0.57;;;;;;;11.98;68.24;100555.44;5158352;28;20022;-81
2023/03/19 03:00:11;;;;;;;0.50;0.50;;;;;;;11.97;68.30;100562.47;5134490;28;20167;-83
2023/03/19 03:02:41;;;;;;;0.28;0.28;;;;;;;11.98;68.52;100563.31;5141194;28;20506;-81
2023/03/19 03:05:13;;;;;;;0.30;0.30;;;;;;;11.99;68.41;100559.78;5126519;28;20047;-81
2023/03/19 03:07:43;;;;;;;0.60;0.60;;;;;;;11.95;68.86;100564.25;5112097;28;20019;-82
2023/03/19 03:10:15;;;;;;;0.30;0.30;;;;;;;11.90;69.26;100561.78;5131668;28;20042;-82
2023/03/19 03:12:45;;;;;;;1.00;1.00;;;;;;;11.89;68.71;100564.47;5181501;28;20034;-82
2023/03/19 03:15:16;;;;;;;0.57;0.57;;;;;;;11.89;69.06;100557.44;5165149;28;20083;-81
2023/03/19 03:17:47;;;;;;;0.88;0.88;;;;;;;11.93;67.91;100564.31;5146246;28;20037;-82
2023/03/19 03:20:19;;;;;;;0.40;0.40;;;;;;;11.98;68.02;100568.56;5158613;28;20018;-82
2023/03/19 03:22:50;;;;;;;0.40;0.40;;;;;;;11.89;68.68;100575.84;5133079;28;20023;-81
2023/03/19 03:25:21;;;;;;;0.35;0.35;;;;;;;11.87;68.24;100561.88;5141895;28;20272;-82
2023/03/19 03:27:52;;;;;;;2.65;1.88;;;;;;;11.91;68.08;100571.41;5161899;28;20027;-81
2023/03/19 03:30:22;;;;;;;3.25;1.02;;;;;;;11.93;67.78;100576.59;5142291;28;20149;-82
2023/03/19 03:32:53;;;;;;;0.70;0.55;;;;;;;11.95;67.33;100583.50;5143633;28;20031;-81
2023/03/19 03:35:23;;;;;;;0.63;0.63;;;;;;;11.84;68.40;100576.91;5156106;28;20039;-80
2023/03/19 03:37:54;;;;;;;0.35;0.35;;;;;;;11.96;67.26;100582.59;5142818;28;20054;-81
2023/03/19 03:40:26;;;;;;;0.30;0.30;;;;;;;11.90;67.39;100582.81;5127107;28;20088;-81
2023/03/19 03:42:56;;;;;;;0.47;0.47;;;;;;;11.91;67.58;100579.28;5126904;28;20030;-82
2023/03/19 03:45:30;;;;;;;0.30;0.30;;;;;;;11.93;67.62;100582.72;5137416;28;20414;-82
2023/03/19 03:48:00;;;;;;;0.32;0.32;;;;;;;11.91;67.75;100595.06;5125432;28;20102;-83
2023/03/19 03:50:31;;;;;;;0.30;0.30;;;;;;;11.91;67.90;100588.91;5137222;28;20075;-82
2023/03/19 03:53:01;;;;;;;0.30;0.30;;;;;;;11.92;67.14;100593.28;5156686;28;20566;-81
2023/03/19 03:55:32;;;;;;;0.25;0.25;;;;;;;11.89;67.85;100596.03;5147552;28;20066;-82
2023/03/19 03:58:03;;;;;;;0.30;0.30;;;;;;;11.89;67.52;100594.25;5142670;28;20026;-82
2023/03/19 04:00:34;;;;;;;0.40;0.40;;;;;;;11.93;67.60;100597.63;5155446;28;20512;-83
2023/03/19 04:03:04;;;;;;;0.40;0.40;;;;;;;11.90;68.51;100601.22;5142003;28;20038;-82
2023/03/19 04:05:36;;;;;;;0.30;0.30;;;;;;;11.81;69.87;100601.53;5124255;28;20042;-82
2023/03/19 04:08:07;;;;;;;0.73;0.73;;;;;;;11.90;68.13;100595.97;5126177;28;20030;-82
2023/03/19 04:10:41;;;;;;;0.30;0.30;;;;;;;11.88;68.49;100595.16;5152227;28;20041;-82
2023/03/19 04:13:12;;;;;;;0.50;0.50;;;;;;;11.87;68.33;100593.44;5155692;28;20064;-82
2023/03/19 04:15:44;;;;;;;0.55;0.55;;;;;;;11.88;68.19;100597.78;5115705;28;20062;-81
2023/03/19 04:18:14;;;;;;;0.25;0.25;;;;;;;11.91;67.64;100597.69;5127835;28;20031;-81
2023/03/19 04:20:45;;;;;;;0.30;0.30;;;;;;;11.91;68.17;100604.69;5125521;28;20393;-82
2023/03/19 04:23:15;;;;;;;0.43;0.43;;;;;;;11.89;68.39;100602.13;5124652;28;20031;-81
2023/03/19 04:25:47;;;;;;;0.50;0.50;;;;;;;11.92;68.06;100604.66;5133487;28;20046;-81
2023/03/19 04:28:17;;;;;;;0.68;0.68;;;;;;;11.95;68.27;100612.44;5155009;28;20037;-82
2023/03/19 04:30:47;;;;;;;0.85;0.75;;;;;;;11.95;68.44;100611.59;5122072;28;20039;-83
2023/03/19 04:33:18;;;;;;;0.30;0.30;;;;;;;11.90;68.21;100613.53;5110287;28;20070;-82
2023/03/19 04:35:48;;;;;;;0.20;0.20;;;;;;;11.93;67.95;100609.00;5138018;28;20039;-82
2023/03/19 04:38:19;;;;;;;0.40;0.40;;;;;;;11.95;68.05;100617.69;5121063;28;20065;-82
2023/03/19 04:40:50;;;;;;;0.30;0.30;;;;;;;12.01;68.37;100619.28;5136795;28;20046;-81
2023/03/19 04:43:22;;;;;;;0.65;0.65;;;;;;;11.96;68.32;100619.41;5117826;28;20506;-83
2023/03/19 04:45:52;;;;;;;0.60;0.60;;;;;;;11.97;68.78;100625.56;5130866;28;20402;-82
2023/03/19 04:48:23;;;;;;;0.40;0.40;;;;;;;11.95;69.15;100625.56;5107192;28;20031;-83
2023/03/19 04:50:55;;;;;;;0.52;0.52;;;;;;;11.93;68.95;100629.19;5107866;28;20552;-81
2023/03/19 04:53:26;;;;;;;0.20;0.20;;;;;;;11.94;68.35;100623.84;5107574;28;20034;-81
2023/03/19 04:55:56;;;;;;;1.38;1.27;;;;;;;11.92;68.57;100628.31;5106447;28;20043;-81
2023/03/19 04:58:27;;;;;;;0.30;0.30;;;;;;;11.95;68.49;100641.34;5121675;28;20059;-81
2023/03/19 05:00:57;;;;;;;0.20;0.20;;;;;;;11.87;68.95;100629.38;5131314;28;20050;-81
2023/03/19 05:03:28;;;;;;;0.50;0.50;;;;;;;11.89;68.86;100636.31;5109563;28;20831;-80
2023/03/19 05:05:59;;;;;;;0.38;0.38;;;;;;;11.91;68.84;100638.88;5119186;28;20042;-81
2023/03/19 05:08:29;;;;;;;0.25;0.25;;;;;;;11.92;68.59;100636.22;5106551;28;20023;-82
2023/03/19 05:10:59;;;;;;;0.22;0.22;;;;;;;11.89;68.90;100638.94;5120888;28;20128;-82
2023/03/19 05:13:30;;;;;;;0.47;0.47;;;;;;;11.91;69.06;100645.00;5125536;28;20026;-81
2023/03/19 05:16:01;;;;;;;0.35;0.35;;;;;;;11.95;69.55;100646.59;5164682;28;20086;-79
2023/03/19 05:18:32;;;;;;;0.95;0.95;;;;;;;11.91;69.49;100652.91;5162871;28;20473;-81
2023/03/19 05:21:03;;;;;;;0.30;0.30;;;;;;;11.98;68.35;100647.47;5143346;28;20302;-80
2023/03/19 05:23:34;;;;;;;0.47;0.47;;;;;;;11.98;68.41;100647.47;5140353;28;20050;-82
2023/03/19 05:26:05;;;;;;;20.00;0.90;;;;;;;11.98;68.05;100645.69;5127081;28;20065;-81
2023/03/19 05:28:36;;;;;;;0.22;0.22;;;;;;;11.97;68.53;100641.34;5141213;28;20453;-81
2023/03/19 05:31:06;;;;;;;0.38;0.38;;;;;;;12.00;68.37;100640.38;5145276;28;20034;-80
2023/03/19 05:33:37;;;;;;;0.20;0.20;;;;;;;12.03;68.41;100645.53;5142217;28;20038;-80
2023/03/19 05:36:08;;;;;;;0.20;0.20;;;;;;;11.98;68.41;100637.81;5143894;28;20457;-80
2023/03/19 05:38:39;;;;;;;2.50;0.80;;;;;;;11.96;69.50;100642.22;5129703;28;20022;-81
2023/03/19 05:41:09;;;;;;;0.40;0.40;;;;;;;12.01;68.31;100642.09;5166748;28;20026;-80
2023/03/19 05:43:40;;;;;;;0.22;0.22;;;;;;;11.94;69.07;100642.25;5162019;28;20525;-81
2023/03/19 05:46:11;;;;;;;0.50;0.50;;;;;;;12.00;68.57;100648.28;5173068;28;20042;-81
2023/03/19 05:48:41;;;;;;;0.30;0.30;;;;;;;12.05;68.39;100649.84;5147134;28;20044;-80
2023/03/19 05:51:11;;;;;;;2.17;0.80;;;;;;;11.94;68.65;100655.41;5129399;28;20050;-81
2023/03/19 05:53:42;;;;;;;0.82;0.82;;;;;;;12.00;68.16;100657.00;5176299;28;20030;-81
2023/03/19 05:56:12;;;;;;;0.55;0.55;;;;;;;12.00;68.24;100657.00;5150828;28;20037;-81
2023/03/19 05:58:43;;;;;;;0.30;0.30;;;;;;;11.99;68.63;100662.31;5129623;28;20053;-81
2023/03/19 06:01:13;;;;;;;0.30;0.30;;;;;;;11.98;68.40;100664.13;5120265;28;20078;-81
2023/03/19 06:03:44;;;;;;;0.30;0.30;;;;;;;12.01;68.35;100663.13;5123607;28;20034;-81
2023/03/19 06:06:14;;;;;;;0.30;0.30;;;;;;;11.99;68.68;100667.59;5147544;28;20051;-81
2023/03/19 06:08:45;;;;;;;0.32;0.32;;;;;;;12.02;68.48;100670.13;5129368;28;20030;-81
2023/03/19 06:11:16;;;;;;;0.30;0.30;;;;;;;12.01;68.62;100677.13;5131175;28;20548;-80
2023/03/19 06:13:46;;;;;;;0.30;0.30;;;;;;;12.00;68.65;100682.44;5162117;28;20065;-82
2023/03/19 06:16:17;;;;;;;0.30;0.30;;;;;;;12.00;69.22;100683.31;5148016;28;20046;-81
2023/03/19 06:18:47;;;;;;;0.35;0.35;;;;;;;11.96;69.50;100685.16;5171200;28;20505;-81
2023/03/19 06:21:18;;;;;;;0.40;0.40;;;;;;;11.95;69.48;100683.41;5145634;28;20041;-81
2023/03/19 06:23:50;;;;;;;0.70;0.70;;;;;;;11.96;69.46;100679.88;5145337;28;20736;-80
2023/03/19 06:26:21;;;;;;;1.50;1.27;;;;;;;11.89;70.51;100686.25;5141326;28;20103;-81
2023/03/19 06:28:51;;;;;;;1.05;1.05;;;;;;;11.77;72.07;100687.53;5113227;28;20110;-81
2023/03/19 06:31:22;;;;;;;0.30;0.30;;;;;;;11.74;71.82;100681.50;5105183;28;20050;-80
2023/03/19 06:33:53;;;;;;;0.50;0.50;;;;;;;11.71;72.43;100686.84;5110627;28;20635;-80
2023/03/19 06:36:24;;;;;;;0.30;0.30;;;;;;;11.62;73.63;100688.88;5119649;28;20830;-79
2023/03/19 06:38:55;;;;;;;0.45;0.45;;;;;;;11.54;74.29;100690.03;5124338;28;20126;-82
2023/03/19 06:41:26;;;;;;;0.47;0.35;;;;;;;11.61;72.79;100691.56;5108783;28;20121;-82
2023/03/19 06:43:56;;;;;;;0.20;0.20;;;;;;;11.70;71.88;100690.38;5141272;28;20022;-81
2023/03/19 06:46:27;;;;;;;0.60;0.60;;;;;;;11.60;73.91;100689.84;5140119;28;20509;-79
2023/03/19 06:48:57;;;;;;;0.30;0.30;;;;;;;11.78;72.23;100685.75;5138159;28;20023;-81
2023/03/19 06:51:28;;;;;;;0.60;0.60;;;;;;;11.67;73.25;100687.88;5108089;28;20557;-79
2023/03/19 06:53:58;;;;;;;0.90;0.75;;;;;;;11.72;72.53;100696.47;5105067;28;20031;-81
2023/03/19 06:56:29;;;;;;;2.72;1.75;;;;;;;11.83;72.73;100681.22;5117504;28;20047;-81
2023/03/19 06:58:59;;;;;;;0.40;0.40;;;;;;;11.74;74.16;100692.03;5139006;28;20558;-78
2023/03/19 07:01:30;;;;;;;0.30;0.30;;;;;;;11.58;75.47;100697.78;5131391;28;20046;-77
2023/03/19 07:04:00;;;;;;;0.82;0.82;;;;;;;11.62;75.09;100694.13;5118080;28;20031;-79
2023/03/19 07:06:32;;;;;;;0.50;0.50;;;;;;;11.64;74.55;100692.31;5114286;28;20529;-78
2023/03/19 07:09:03;;;;;;;0.52;0.38;;;;;;;11.64;75.54;100700.19;5148270;28;20031;-79
2023/03/19 07:11:33;;;;;;;0.30;0.30;;;;;;;11.59;76.74;100696.00;5146838;28;20050;-78
2023/03/19 07:14:04;;;;;;;0.20;0.20;;;;;;;11.57;76.82;100701.31;5120063;28;20039;-80
2023/03/19 07:16:35;;;;;;;0.40;0.40;;;;;;;11.49;77.48;100709.41;5134196;28;20062;-81
2023/03/19 07:19:06;;;;;;;0.45;0.45;;;;;;;11.68;75.77;100713.25;5134289;28;20019;-82
2023/03/19 07:21:36;;;;;;;0.20;0.20;;;;;;;11.78;75.05;100715.53;5140706;28;20626;-79
2023/03/19 07:24:07;;;;;;;0.43;0.43;;;;;;;11.81;75.82;100714.56;5131949;28;20085;-81
2023/03/19 07:26:37;;;;;;;0.30;0.30;;;;;;;11.80;76.11;100716.34;5138904;28;20039;-81
2023/03/19 07:29:08;;;;;;;0.30;0.30;;;;;;;11.87;74.35;100724.88;5122904;28;20612;-81
2023/03/19 07:31:39;;;;;;;0.30;0.30;;;;;;;12.04;74.13;100731.38;5172457;28;20026;-82
2023/03/19 07:34:10;;;;;;;7.97;1.48;;;;;;;12.03;73.98;100740.19;5184769;28;20034;-81
2023/03/19 07:36:40;;;;;;;0.82;0.82;;;;;;;12.05;73.53;100744.50;5158077;28;20890;-78
2023/03/19 07:39:11;;;;;;;1.80;0.95;;;;;;;12.06;73.59;100742.72;5165922;28;20099;-80
2023/03/19 07:41:43;;;;;;;0.40;0.40;;;;;;;12.10;73.27;100742.56;5165759;28;20038;-79
2023/03/19 07:44:15;;;;;;;0.33;0.33;;;;;;;12.11;72.89;100744.28;5157468;28;20038;-79
2023/03/19 07:46:45;;;;;;;0.63;0.63;;;;;;;12.12;73.91;100742.50;5118388;28;20313;-80
2023/03/19 07:49:16;;;;;;;0.47;0.47;;;;;;;12.10;74.12;100749.63;5146291;28;20039;-80
2023/03/19 07:51:46;;;;;;;0.30;0.30;;;;;;;12.17;73.23;100748.50;5160397;28;20136;-80
2023/03/19 07:54:17;;;;;;;0.30;0.30;;;;;;;12.22;73.11;100745.72;5144318;28;20465;-80
2023/03/19 07:56:47;;;;;;;0.50;0.50;;;;;;;12.22;73.32;100746.56;5133929;28;20045;-80
2023/03/19 07:59:17;;;;;;;0.30;0.30;;;;;;;12.25;72.89;100746.47;5146342;28;20029;-80
2023/03/19 08:01:48;;;;;;;0.43;0.43;;;;;;;12.19;73.87;100746.66;5128458;28;20026;-80
2023/03/19 08:04:18;;;;;;;0.38;0.38;;;;;;;12.28;73.00;100748.97;5146334;28;20061;-80
2023/03/19 08:06:49;;;;;;;0.40;0.40;;;;;;;12.35;72.68;100744.38;5169615;28;20023;-80
2023/03/19 08:09:19;;;;;;;1.30;0.60;;;;;;;12.37;73.35;100749.56;5161309;28;20031;-81
2023/03/19 08:11:50;;;;;;;0.50;0.50;;;;;;;12.40;72.67;100745.06;5163887;28;20027;-81
2023/03/19 08:14:21;;;;;;;0.32;0.32;;;;;;;12.45;73.08;100742.28;5145034;28;20025;-80
2023/03/19 08:16:51;;;;;;;0.20;0.20;;;;;;;12.50;72.89;100745.63;5147855;28;20023;-79
2023/03/19 08:19:22;;;;;;;0.20;0.20;;;;;;;12.47;72.89;100740.47;5156674;28;20030;-79
2023/03/19 08:21:53;;;;;;;0.40;0.40;;;;;;;12.44;73.26;100745.81;5156523;28;20036;-79
2023/03/19 08:24:24;;;;;;;0.43;0.43;;;;;;;12.49;72.85;100754.44;5140032;28;20496;-81
2023/03/19 08:26:55;;;;;;;0.50;0.50;;;;;;;12.47;73.27;100751.00;5162631;28;20062;-81
2023/03/19 08:29:26;;;;;;;0.55;0.55;;;;;;;12.61;73.14;100761.03;5160672;28;20038;-81
2023/03/19 08:31:57;;;;;;;0.40;0.40;;;;;;;12.59;73.29;100753.22;5141812;28;20026;-81
2023/03/19 08:34:28;;;;;;;0.50;0.50;;;;;;;12.69;73.02;100756.38;5157881;28;20030;-81
2023/03/19 08:36:58;;;;;;;0.50;0.50;;;;;;;12.69;73.05;100751.09;5161324;28;20029;-79
2023/03/19 08:39:29;;;;;;;0.35;0.35;;;;;;;12.64;73.13;100762.72;5126148;28;20810;-81
2023/03/19 08:41:59;;;;;;;0.20;0.20;;;;;;;12.71;73.17;100753.69;5139109;28;20109;-81
2023/03/19 08:44:30;;;;;;;0.20;0.20;;;;;;;12.81;72.93;100764.75;5153790;28;20053;-81
2023/03/19 08:47:00;;;;;;;0.38;0.38;;;;;;;12.73;73.05;100767.66;5160661;28;20029;-80
2023/03/19 08:49:31;;;;;;;0.40;0.40;;;;;;;12.73;72.86;100771.13;5142405;28;20122;-81
2023/03/19 08:52:01;;;;;;;0.40;0.40;;;;;;;12.73;72.74;100773.75;5144365;28;20015;-81
2023/03/19 08:54:32;;;;;;;0.55;0.38;;;;;;;12.86;72.79;100765.44;5125916;28;20030;-79
2023/03/19 08:57:03;;;;;;;0.43;0.43;;;;;;;12.74;72.82;100761.47;5157876;28;20030;-82
2023/03/19 08:59:34;;;;;;;0.30;0.30;;;;;;;12.87;72.38;100759.25;5125185;28;20058;-81
2023/03/19 09:02:04;;;;;;;0.50;0.50;;;;;;;12.85;72.65;100756.66;5153954;28;20026;-81
2023/03/19 09:04:37;;;;;;;0.40;0.40;;;;;;;12.76;72.92;100767.56;5154331;28;20050;-81
2023/03/19 09:07:14;;;;;;;0.30;0.30;;;;;;;12.89;72.51;100768.81;5140751;28;20027;-81
2023/03/19 09:09:45;;;;;;;0.38;0.38;;;;;;;12.98;72.79;100772.88;5150091;28;20038;-79
2023/03/19 09:12:17;;;;;;;0.50;0.50;;;;;;;13.03;72.25;100770.09;5146339;28;20060;-79
2023/03/19 09:14:48;;;;;;;1.25;1.15;;;;;;;13.07;72.32;100769.91;5160219;28;20039;-79
2023/03/19 09:17:19;;;;;;;0.82;0.63;;;;;;;12.95;72.17;100773.00;5159822;28;20033;-79
2023/03/19 09:19:49;;;;;;;0.45;0.45;;;;;;;12.97;72.19;100781.72;5155437;28;21004;-80
2023/03/19 09:22:19;;;;;;;0.80;0.80;;;;;;;12.99;71.90;100779.03;5134219;28;20035;-80
2023/03/19 09:24:50;;;;;;;0.30;0.30;;;;;;;13.06;72.03;100785.78;5121933;28;20292;-79
2023/03/19 09:27:22;;;;;;;0.55;0.55;;;;;;;13.12;71.79;100780.28;5137750;28;20050;-79
2023/03/19 09:29:53;;;;;;;0.30;0.30;;;;;;;13.15;71.51;100784.56;5100882;28;20493;-78
2023/03/19 09:32:23;;;;;;;0.80;0.80;;;;;;;13.19;71.47;100787.03;5138121;28;20103;-79
2023/03/19 09:34:54;;;;;;;1.48;0.75;;;;;;;13.28;71.32;100790.25;5110206;28;20092;-79
2023/03/19 09:37:24;;;;;;;0.20;0.20;;;;;;;13.21;71.74;100790.50;5116293;28;20090;-79
2023/03/19 09:39:55;;;;;;;0.52;0.52;;;;;;;13.21;71.19;100787.00;5137253;28;20054;-79
2023/03/19 09:42:50;;;;;;;0.40;0.40;;;;;;;13.22;71.70;100792.22;5142057;28;20046;-79
2023/03/19 09:45:22;;;;;;;0.40;0.40;;;;;;;13.33;71.85;100789.16;5137634;28;20162;-79
2023/03/19 09:47:57;;;;;;;0.43;0.43;;;;;;;13.35;71.53;100791.75;5159505;28;20033;-80
2023/03/19 09:50:28;;;;;;;0.30;0.30;;;;;;;13.39;71.27;100790.75;5137500;28;20045;-80
2023/03/19 09:53:05;;;;;;;0.80;0.80;;;;;;;13.50;70.41;100787.72;5154263;28;20035;-80
2023/03/19 09:55:44;;;;;;;0.20;0.20;;;;;;;13.31;70.10;100798.06;5136102;28;20706;-80
2023/03/19 09:58:21;;;;;;;0.22;0.22;;;;;;;13.18;70.59;100793.22;5136536;28;20042;-80
2023/03/19 10:00:53;;;;;;;0.38;0.38;;;;;;;13.35;69.94;100794.38;5137348;28;20117;-79
2023/03/19 10:03:45;;;;;;;0.30;0.30;;;;;;;13.41;69.93;100793.31;5152939;28;20022;-80
2023/03/19 10:06:54;;;;;;;0.20;0.20;;;;;;;13.28;70.19;100795.53;5121878;28;20053;-80
2023/03/19 10:09:24;;;;;;;0.75;0.75;;;;;;;13.35;70.58;100797.00;5124400;28;20042;-79
2023/03/19 10:11:58;;;;;;;0.40;0.40;;;;;;;13.29;70.21;100802.53;5154381;28;20397;-80
2023/03/19 10:15:27;;;;;;;0.38;0.38;;;;;;;13.29;70.42;100805.16;5122893;28;20137;-79
2023/03/19 10:18:20;;;;;;;0.30;0.30;;;;;;;13.26;71.46;100802.66;5124926;28;20110;-80
2023/03/19 10:21:13;;;;;;;0.28;0.28;;;;;;;13.29;71.91;100807.78;5118683;28;20038;-80
2023/03/19 10:23:54;;;;;;;2.75;1.20;;;;;;;13.36;72.04;100798.72;5153712;28;20042;-79
2023/03/19 10:26:30;;;;;;;0.30;0.30;;;;;;;13.40;71.96;100803.03;5141203;28;20077;-80
2023/03/19 10:29:14;;;;;;;0.35;0.35;;;;;;;13.48;71.84;100807.97;5138263;28;20096;-81
2023/03/19 10:31:50;;;;;;;0.20;0.20;;;;;;;13.44;71.84;100804.59;5134063;28;20138;-81
2023/03/19 10:34:42;;;;;;;0.25;0.25;;;;;;;13.45;71.58;100802.84;5132460;28;20042;-81
2023/03/19 10:37:24;;;;;;;0.20;0.20;;;;;;;13.48;71.44;100814.13;5170920;28;20049;-81
2023/03/19 10:40:00;;;;;;;1.98;1.40;;;;;;;13.42;71.46;100809.09;5124948;28;20041;-80
2023/03/19 10:42:55;;;;;;;1.08;0.82;;;;;;;13.58;71.44;100806.72;5127108;28;20027;-79
2023/03/19 10:45:33;;;;;;;0.20;0.20;;;;;;;13.51;70.98;100814.00;5156689;28;20054;-80
2023/03/19 10:48:05;;;;;;;0.82;0.82;;;;;;;13.52;71.43;100815.72;5140464;28;20030;-80
2023/03/19 10:50:48;;;;;;;0.30;0.30;;;;;;;13.62;70.75;100810.09;5135182;28;20053;-81
2023/03/19 10:53:45;;;;;;;0.30;0.30;;;;;;;13.66;69.75;100817.84;5138577;28;20046;-81
2023/03/19 10:56:18;;;;;;;0.45;0.45;;;;;;;13.74;69.43;100814.91;5157534;28;20058;-79
2023/03/19 10:59:02;;;;;;;0.50;0.50;;;;;;;13.52;69.07;100815.72;5155091;28;20033;-78
2023/03/19 11:01:43;;;;;;;0.75;0.75;;;;;;;13.59;69.07;100823.41;5122415;28;20035;-80
2023/03/19 11:04:20;;;;;;;0.30;0.30;;;;;;;13.69;68.65;100817.72;5140522;28;20110;-78
2023/03/19 11:06:55;;;;;;;0.22;0.22;;;;;;;13.64;68.40;100824.09;5125795;28;20038;-78
2023/03/19 11:09:33;;;;;;;0.20;0.20;;;;;;;13.72;68.61;100827.28;5122295;28;20130;-79
2023/03/19 11:12:16;;;;;;;0.38;0.38;;;;;;;13.89;69.55;100825.78;5152021;28;20026;-79
2023/03/19 11:14:50;;;;;;;3.13;2.13;;;;;;;14.01;70.11;100827.91;5138572;28;20121;-79
2023/03/19 11:17:34;;;;;;;0.70;0.57;;;;;;;13.98;70.04;100833.34;5145057;28;20038;-79
2023/03/19 11:20:14;;;;;;;0.63;0.63;;;;;;;14.00;69.93;100836.78;5135089;28;20046;-83
2023/03/19 11:22:46;;;;;;;0.20;0.20;;;;;;;14.06;70.31;100825.97;5160197;28;20031;-83
2023/03/19 11:25:35;;;;;;;0.40;0.40;;;;;;;14.12;70.48;100832.78;5158958;28;20084;-83
2023/03/19 11:28:23;;;;;;;6.63;4.72;;;;;;;14.45;70.05;100827.06;5128064;28;20030;-81
2023/03/19 11:33:53;;;;;;;0.30;0.30;;;;;;;14.05;68.97;100836.59;5114456;28;20075;-83
2023/03/19 11:36:29;;;;;;;266.90;239.20;;;;;;;14.36;70.27;100838.00;5051413;28;21016;-83
2023/03/19 11:39:06;;;;;;;23.10;20.88;;;;;;;14.13;67.92;100834.50;5094315;29;20050;-83
2023/03/19 11:41:52;;;;;;;5.93;4.65;;;;;;;14.02;67.98;100837.53;5084304;29;20121;-83
2023/03/19 11:45:00;;;;;;;0.40;0.40;;;;;;;13.85;68.62;100843.50;5090921;28;20039;-82
2023/03/19 11:47:37;;;;;;;1.65;1.55;;;;;;;13.99;68.65;100840.31;5065173;29;20107;-82
2023/03/19 11:50:23;;;;;;;0.70;0.70;;;;;;;14.14;68.12;100834.44;5096295;28;20035;-83
2023/03/19 11:53:25;;;;;;;0.40;0.40;;;;;;;14.08;67.51;100839.09;5095181;29;20032;-80